createdAt,value
2022-08-24T00:01:05.915Z,12.10
2022-08-24T00:06:12.180Z,12.60
2022-08-24T00:11:14.703Z,10.30
2022-08-24T00:16:18.963Z,15.60
2022-08-24T00:21:22.146Z,12.20
2022-08-24T00:26:29.044Z,9.70
2022-08-24T00:31:35.529Z,10.60
2022-08-24T00:36:37.929Z,12.10
2022-08-24T00:41:43.685Z,14.10
2022-08-24T00:47:00.419Z,11.20
2022-08-24T00:52:11.103Z,12.10
2022-08-24T00:57:15.548Z,11.40
2022-08-24T01:02:23.333Z,11.50
2022-08-24T01:07:28.727Z,11.30
2022-08-24T01:12:33.989Z,10.70
2022-08-24T01:17:55.725Z,12.60
2022-08-24T01:23:16.130Z,10.80
2022-08-24T01:33:31.663Z,12.30
2022-08-24T01:38:34.437Z,13.20
2022-08-24T01:43:37.424Z,12.80
2022-08-24T01:48:42.331Z,11.60
2022-08-24T01:53:44.831Z,12.70
2022-08-24T01:58:49.065Z,13.30
2022-08-24T02:03:51.900Z,14.40
2022-08-24T02:08:55.599Z,14.20
2022-08-24T02:13:58.193Z,16.00
2022-08-24T02:19:02.941Z,18.30
2022-08-24T02:24:05.646Z,13.60
2022-08-24T02:29:07.836Z,13.70
2022-08-24T02:34:10.231Z,12.90
2022-08-24T02:39:12.728Z,13.70
2022-08-24T02:44:15.635Z,15.30
2022-08-24T02:49:18.951Z,12.30
2022-08-24T02:54:21.356Z,13.90
2022-08-24T02:59:25.589Z,15.10
2022-08-24T03:04:28.405Z,13.90
2022-08-24T03:09:30.986Z,11.50
2022-08-24T03:14:35.649Z,13.30
2022-08-24T03:19:38.029Z,15.60
2022-08-24T03:24:41.556Z,12.10
2022-08-24T03:29:43.858Z,12.60
2022-08-24T03:34:47.136Z,15.10
2022-08-24T03:39:50.889Z,11.40
2022-08-24T03:44:54.112Z,16.30
2022-08-24T03:49:56.992Z,17.30
2022-08-24T03:54:59.403Z,15.00
2022-08-24T04:00:04.678Z,14.00
2022-08-24T04:05:16.779Z,15.20
2022-08-24T04:10:18.967Z,10.90
2022-08-24T04:15:24.128Z,13.40
2022-08-24T04:20:28.367Z,12.30
2022-08-24T04:25:31.986Z,12.20
2022-08-24T04:30:34.318Z,13.30
2022-08-24T04:35:47.591Z,10.50
2022-08-24T04:40:50.531Z,11.20
2022-08-24T04:45:53.069Z,14.80
2022-08-24T04:51:00.852Z,14.10
2022-08-24T04:56:09.895Z,10.00
2022-08-24T05:01:16.011Z,10.50
2022-08-24T05:06:20.529Z,10.30
2022-08-24T05:11:22.915Z,11.50
2022-08-24T05:16:26.066Z,11.50
2022-08-24T05:21:30.802Z,11.40
2022-08-24T05:26:33.579Z,12.00
2022-08-24T05:31:36.121Z,11.10
2022-08-24T05:36:42.358Z,11.20
2022-08-24T05:41:49.364Z,12.90
2022-08-24T05:46:59.573Z,14.60
2022-08-24T05:52:02.443Z,13.60
2022-08-24T05:57:06.066Z,10.50
2022-08-24T06:02:13.652Z,13.00
2022-08-24T06:07:16.789Z,13.10
2022-08-24T06:12:23.479Z,14.10
2022-08-24T06:17:25.993Z,14.90
2022-08-24T06:22:28.374Z,10.60
2022-08-24T06:27:31.284Z,12.60
2022-08-24T06:32:33.986Z,13.80
2022-08-24T06:37:36.480Z,13.50
2022-08-24T06:42:38.775Z,12.00
2022-08-24T06:47:51.811Z,10.40
2022-08-24T06:52:54.619Z,11.50
2022-08-24T06:58:02.303Z,12.90
2022-08-24T07:03:05.483Z,11.90
2022-08-24T07:08:08.161Z,12.80
2022-08-24T07:13:17.239Z,11.50
2022-08-24T07:18:22.367Z,12.50
2022-08-24T07:23:41.725Z,12.00
2022-08-24T07:28:46.278Z,11.30
2022-08-24T07:33:56.535Z,13.10
2022-08-24T07:39:09.316Z,11.80
2022-08-24T07:44:15.994Z,10.90
2022-08-24T07:49:33.139Z,13.30
2022-08-24T07:54:41.031Z,15.30
2022-08-24T07:59:47.163Z,11.70
2022-08-24T08:04:52.267Z,10.30
2022-08-24T08:10:16.334Z,13.20
2022-08-24T08:15:34.051Z,13.90
2022-08-24T08:20:47.873Z,15.70
2022-08-24T08:25:57.826Z,13.00
2022-08-24T08:31:20.951Z,14.20
2022-08-24T08:36:27.847Z,13.10
2022-08-24T08:41:48.355Z,10.40
2022-08-24T08:47:23.058Z,10.60
2022-08-24T08:53:03.488Z,11.60
2022-08-24T08:58:34.845Z,9.60
2022-08-24T09:04:28.653Z,14.40
2022-08-24T09:10:08.259Z,12.30
2022-08-24T09:15:48.717Z,12.90
2022-08-24T09:20:57.151Z,9.40
2022-08-24T09:26:27.279Z,14.20
2022-08-24T09:32:03.311Z,11.20
2022-08-24T09:37:32.039Z,9.70
2022-08-24T09:42:56.434Z,13.80
2022-08-24T09:48:42.581Z,13.50
2022-08-24T09:54:26.636Z,15.30
2022-08-24T10:00:03.972Z,11.70
2022-08-24T10:05:41.976Z,10.20
2022-08-24T10:10:50.818Z,11.40
2022-08-24T10:16:21.397Z,11.00
2022-08-24T10:21:56.492Z,12.90
2022-08-24T10:27:10.071Z,16.20
2022-08-24T10:32:42.941Z,9.80
2022-08-24T10:38:21.348Z,18.00
2022-08-24T10:43:35.659Z,9.80
2022-08-24T10:48:57.865Z,11.50
2022-08-24T10:54:04.352Z,12.20
2022-08-24T10:59:16.978Z,11.40
2022-08-24T11:04:28.280Z,10.40
2022-08-24T11:09:53.799Z,10.90
2022-08-24T11:15:01.696Z,11.70
2022-08-24T11:20:32.054Z,10.10
2022-08-24T11:25:40.411Z,11.90
2022-08-24T11:30:42.991Z,15.10
2022-08-24T11:35:48.242Z,13.60
2022-08-24T11:41:04.349Z,14.50
2022-08-24T11:46:20.007Z,13.70
2022-08-24T11:51:29.912Z,13.80
2022-08-24T11:56:57.688Z,15.50
2022-08-24T12:02:07.872Z,14.60
2022-08-24T12:07:34.408Z,13.30
2022-08-24T12:12:46.419Z,13.90
2022-08-24T12:18:04.782Z,13.30
2022-08-24T12:24:02.844Z,17.10
2022-08-24T12:29:18.030Z,11.70
2022-08-24T12:34:27.220Z,13.90
2022-08-24T12:39:47.206Z,11.10
2022-08-24T12:44:52.743Z,14.90
2022-08-24T12:50:03.340Z,12.40
2022-08-24T12:55:52.265Z,15.40
2022-08-24T13:00:57.136Z,16.10
2022-08-24T13:06:05.056Z,13.30
2022-08-24T13:11:12.673Z,10.90
2022-08-24T13:16:45.356Z,14.50
2022-08-24T13:21:51.820Z,13.20
2022-08-24T13:27:26.326Z,11.70
2022-08-24T13:32:35.376Z,13.20
2022-08-24T13:38:21.789Z,14.50
2022-08-24T13:43:40.445Z,13.10
2022-08-24T13:49:13.064Z,13.90
2022-08-24T13:54:38.192Z,14.30
2022-08-24T13:59:47.596Z,15.40
2022-08-24T14:05:06.110Z,15.40
2022-08-24T14:10:40.935Z,13.40
2022-08-24T14:16:17.142Z,16.70
2022-08-24T14:21:27.247Z,19.30
2022-08-24T14:26:52.998Z,19.00
2022-08-24T14:32:12.313Z,19.00
2022-08-24T14:37:18.991Z,21.60
2022-08-24T14:42:57.421Z,19.40
2022-08-24T14:48:20.591Z,17.50
2022-08-24T14:53:39.872Z,20.00
2022-08-24T14:59:07.473Z,20.50
2022-08-24T15:04:38.113Z,20.70
2022-08-24T15:09:44.289Z,14.60
2022-08-24T15:14:53.609Z,21.70
2022-08-24T15:20:19.534Z,19.50
2022-08-24T15:25:53.233Z,18.00
2022-08-24T15:31:07.471Z,23.50
2022-08-24T15:36:16.637Z,16.60
2022-08-24T15:41:32.845Z,19.70
2022-08-24T15:46:40.522Z,15.10
2022-08-24T15:51:42.957Z,18.10
2022-08-24T15:56:51.593Z,18.40
2022-08-24T16:02:27.604Z,17.80
2022-08-24T16:07:53.079Z,16.10
2022-08-24T16:13:30.680Z,23.20
2022-08-24T16:18:49.444Z,15.60
2022-08-24T16:24:02.491Z,21.50
2022-08-24T16:29:04.878Z,17.60
2022-08-24T16:34:22.928Z,16.40
2022-08-24T16:39:28.701Z,15.20
2022-08-24T16:44:42.966Z,15.80
2022-08-24T16:49:46.195Z,18.20
2022-08-24T16:55:05.417Z,17.50
2022-08-24T17:00:22.985Z,15.90
2022-08-24T17:11:42.337Z,19.60
2022-08-24T17:17:23.069Z,22.30
2022-08-24T17:28:09.599Z,14.10
2022-08-24T17:33:28.178Z,16.70
2022-08-24T17:38:55.592Z,15.70
2022-08-24T17:44:23.825Z,20.70
2022-08-24T17:49:31.246Z,17.90
2022-08-24T17:54:36.694Z,20.00
2022-08-24T17:59:42.053Z,24.20
2022-08-24T18:04:44.478Z,16.00
2022-08-24T18:09:54.748Z,21.60
2022-08-24T18:14:58.658Z,17.00
2022-08-24T18:20:01.870Z,16.70
2022-08-24T18:25:06.515Z,20.20
2022-08-24T18:30:30.356Z,20.70
2022-08-24T18:35:36.686Z,15.80
2022-08-24T18:40:52.215Z,22.90
2022-08-24T18:46:00.318Z,22.70
2022-08-24T18:51:06.914Z,16.30
2022-08-24T18:56:12.685Z,18.80
2022-08-24T19:01:15.353Z,20.10
2022-08-24T19:06:18.075Z,15.50
2022-08-24T19:11:25.562Z,22.50
2022-08-24T19:16:30.052Z,23.80
2022-08-24T19:21:44.960Z,16.70
2022-08-24T19:26:48.730Z,18.50
2022-08-24T19:31:52.960Z,13.30
2022-08-24T19:36:56.827Z,15.10
2022-08-24T19:42:00.010Z,13.90
2022-08-24T19:47:06.500Z,16.10
2022-08-24T19:52:10.788Z,17.80
2022-08-24T19:57:41.686Z,19.00
2022-08-24T20:02:47.497Z,18.70
2022-08-24T20:07:51.636Z,20.30
2022-08-24T20:12:54.497Z,18.60
2022-08-24T20:17:59.252Z,23.20
2022-08-24T20:23:06.093Z,18.70
2022-08-24T20:33:36.007Z,18.80
2022-08-24T20:38:44.682Z,17.40
2022-08-24T20:43:48.885Z,25.00
2022-08-24T20:48:55.664Z,21.50
2022-08-24T20:53:59.094Z,16.30
2022-08-24T20:59:04.883Z,21.30
2022-08-24T21:04:07.150Z,23.40
2022-08-24T21:09:14.020Z,21.70
2022-08-24T21:14:19.623Z,21.00
2022-08-24T21:19:23.774Z,18.40
2022-08-24T21:24:26.051Z,19.90
2022-08-24T21:29:28.446Z,17.00
2022-08-24T21:34:42.713Z,14.20
2022-08-24T21:39:48.277Z,16.40
2022-08-24T21:44:50.879Z,13.60
2022-08-24T21:49:55.525Z,18.60
2022-08-24T21:54:59.049Z,15.10
2022-08-24T22:00:04.306Z,17.50
2022-08-24T22:05:07.702Z,13.50
2022-08-24T22:10:11.952Z,12.40
2022-08-24T22:15:16.221Z,14.30
2022-08-24T22:20:23.567Z,14.50
2022-08-24T22:25:26.928Z,13.50
2022-08-24T22:30:33.744Z,13.70
2022-08-24T22:35:44.752Z,12.10
2022-08-24T22:40:59.477Z,11.50
2022-08-24T22:46:02.870Z,13.10
2022-08-24T22:51:12.874Z,14.80
2022-08-24T22:56:30.425Z,11.30
2022-08-24T23:01:36.646Z,12.30
2022-08-24T23:06:39.505Z,11.90
2022-08-24T23:11:42.411Z,13.40
2022-08-24T23:16:48.903Z,12.60
2022-08-24T23:21:53.318Z,10.60
2022-08-24T23:26:55.534Z,10.10
2022-08-24T23:31:58.448Z,12.40
2022-08-24T23:37:01.037Z,12.90
2022-08-24T23:42:03.640Z,11.20
2022-08-24T23:47:07.466Z,11.70
2022-08-24T23:52:25.905Z,10.40
2022-08-24T23:57:30.882Z,10.00
